Time;durP1;ratioP1;P1;durP2;ratioP2;P2;SDS_P1;SDS_P2;PMS_P1;PMS_P2;Temp;Humidity;BMP_temperature;BMP_pressure;BME280_temperature;BME280_humidity;BME280_pressure;Samples;Min_cycle;Max_cycle;Signal;HPM_P1;HPM_P2
2022/04/07 00:01:41;;;;;;;4.00;1.60;;;10.30;99.90;;;;;;5074637;28;20465;-69
2022/04/07 00:04:08;;;;;;;2.07;1.47;;;10.40;99.90;;;;;;5074554;28;20848;-69
2022/04/07 00:06:37;;;;;;;3.67;2.40;;;10.50;99.90;;;;;;5074489;28;20539;-69
2022/04/07 00:09:04;;;;;;;3.63;2.93;;;10.50;99.90;;;;;;5074431;28;20445;-69
2022/04/07 00:11:31;;;;;;;3.87;2.90;;;10.50;99.90;;;;;;5074392;28;20477;-69
2022/04/07 00:13:57;;;;;;;3.03;2.83;;;10.60;99.90;;;;;;5074443;28;20441;-69
2022/04/07 00:16:24;;;;;;;4.07;2.97;;;10.60;99.90;;;;;;5074415;28;20447;-69
2022/04/07 00:18:51;;;;;;;2.67;2.47;;;10.70;99.90;;;;;;5073782;28;20492;-69
2022/04/07 00:21:24;;;;;;;2.63;2.43;;;10.70;99.90;;;;;;5074180;28;20473;-69
2022/04/07 00:23:53;;;;;;;2.40;2.10;;;10.70;99.90;;;;;;5074149;28;20441;-69
2022/04/07 00:26:20;;;;;;;2.20;2.00;;;10.70;99.90;;;;;;5074052;28;20445;-69
2022/04/07 00:28:47;;;;;;;2.63;1.90;;;10.70;99.90;;;;;;5074061;28;20448;-69
2022/04/07 00:31:13;;;;;;;2.33;1.60;;;10.70;99.90;;;;;;5073690;28;20476;-69
2022/04/07 00:33:40;;;;;;;3.03;1.67;;;10.70;99.90;;;;;;5074168;28;20546;-69
2022/04/07 00:36:07;;;;;;;5.00;1.60;;;10.70;99.90;;;;;;5073965;28;20444;-69
2022/04/07 00:38:34;;;;;;;4.37;1.60;;;10.70;99.90;;;;;;5073801;28;20483;-70
2022/04/07 00:41:02;;;;;;;3.83;1.30;;;10.70;99.90;;;;;;5073876;28;20473;-70
2022/04/07 00:43:30;;;;;;;3.73;1.57;;;10.80;99.90;;;;;;5073867;28;20452;-69
2022/04/07 00:45:57;;;;;;;6.40;1.40;;;10.80;99.90;;;;;;5073817;28;20448;-69
2022/04/07 00:48:23;;;;;;;2.40;1.50;;;10.70;99.90;;;;;;5073756;28;20452;-69
2022/04/07 00:50:50;;;;;;;2.87;1.50;;;10.80;99.90;;;;;;5073672;28;20468;-70
2022/04/07 00:53:18;;;;;;;2.93;0.93;;;10.80;99.90;;;;;;5073627;28;20506;-70
2022/04/07 00:55:44;;;;;;;1.90;1.27;;;10.80;99.90;;;;;;5073775;28;20449;-70
2022/04/07 00:58:14;;;;;;;2.43;1.73;;;10.80;99.90;;;;;;5073282;28;20926;-69
2022/04/07 01:00:40;;;;;;;4.50;1.50;;;10.80;99.90;;;;;;5073171;28;20883;-70
2022/04/07 01:03:07;;;;;;;2.53;1.10;;;10.80;99.90;;;;;;5073572;28;20456;-69
2022/04/07 01:05:36;;;;;;;2.23;1.10;;;10.90;99.90;;;;;;5073233;28;20554;-69
2022/04/07 01:08:03;;;;;;;3.83;1.07;;;10.80;99.90;;;;;;5073201;28;20940;-69
2022/04/07 01:10:30;;;;;;;4.63;1.63;;;10.80;99.90;;;;;;5073099;28;20952;-70
2022/04/07 01:12:57;;;;;;;1.50;1.33;;;10.80;99.90;;;;;;5073451;28;20448;-69
2022/04/07 01:15:25;;;;;;;2.23;1.10;;;10.70;99.90;;;;;;5073538;28;20459;-69
2022/04/07 01:17:52;;;;;;;4.17;1.37;;;10.70;99.90;;;;;;5073351;28;20452;-70
2022/04/07 01:20:18;;;;;;;4.73;1.80;;;10.70;99.90;;;;;;5073063;28;20480;-70
2022/04/07 01:22:51;;;;;;;2.20;1.47;;;10.70;99.90;;;;;;5073253;28;20467;-70
2022/04/07 01:25:20;;;;;;;2.77;1.73;;;10.70;99.90;;;;;;5074322;28;20455;-70
2022/04/07 01:27:49;;;;;;;2.13;1.93;;;10.80;99.90;;;;;;5073367;28;20456;-70
2022/04/07 01:30:16;;;;;;;2.10;1.30;;;10.80;99.90;;;;;;5074000;28;20471;-70
2022/04/07 01:32:45;;;;;;;3.10;1.57;;;10.80;99.90;;;;;;5073190;28;20471;-70
2022/04/07 01:35:12;;;;;;;1.67;1.57;;;10.90;99.90;;;;;;5073308;28;20440;-70
2022/04/07 01:37:41;;;;;;;1.80;1.70;;;11.00;99.90;;;;;;5073255;28;20444;-70
2022/04/07 01:40:10;;;;;;;2.50;1.50;;;11.00;99.90;;;;;;5073084;28;20488;-70
2022/04/07 01:42:39;;;;;;;2.70;1.77;;;11.00;99.90;;;;;;5073241;28;20487;-69
2022/04/07 01:45:08;;;;;;;2.17;1.20;;;11.10;99.90;;;;;;5073180;28;20449;-70
2022/04/07 01:47:36;;;;;;;3.03;2.00;;;11.10;99.90;;;;;;5073222;28;20456;-70
2022/04/07 01:50:06;;;;;;;1.40;1.30;;;11.10;99.90;;;;;;5073361;28;20452;-70
2022/04/07 01:52:34;;;;;;;5.30;1.90;;;11.10;99.90;;;;;;5074672;28;20472;-70
2022/04/07 01:55:02;;;;;;;3.03;1.97;;;11.10;99.90;;;;;;5075014;28;20471;-70
2022/04/07 01:57:30;;;;;;;4.33;1.70;;;11.20;99.90;;;;;;5073360;28;20456;-70
2022/04/07 01:59:59;;;;;;;1.70;1.60;;;11.20;99.90;;;;;;5073149;28;20533;-69
2022/04/07 02:02:26;;;;;;;4.57;1.67;;;11.20;99.90;;;;;;5073056;28;20817;-70
2022/04/07 02:04:57;;;;;;;4.77;1.57;;;11.30;99.90;;;;;;5073031;28;20456;-70
2022/04/07 02:07:29;;;;;;;2.30;1.30;;;11.20;99.90;;;;;;5072961;28;20490;-69
2022/04/07 02:09:56;;;;;;;1.90;1.43;;;11.20;99.90;;;;;;5073059;28;20433;-69
2022/04/07 02:12:23;;;;;;;1.60;1.40;;;11.20;99.90;;;;;;5072775;28;20469;-69
2022/04/07 02:14:50;;;;;;;1.80;1.70;;;11.20;99.90;;;;;;5074028;28;20445;-69
2022/04/07 02:17:20;;;;;;;3.60;1.60;;;11.20;99.90;;;;;;5075633;28;20452;-69
2022/04/07 02:19:49;;;;;;;1.67;1.13;;;11.20;99.90;;;;;;5076245;28;20484;-69
2022/04/07 02:22:16;;;;;;;2.50;1.50;;;11.20;99.90;;;;;;5076168;28;20507;-69
2022/04/07 02:24:43;;;;;;;3.43;1.30;;;11.20;99.90;;;;;;5076255;28;20466;-69
2022/04/07 02:27:11;;;;;;;2.93;1.13;;;11.10;99.90;;;;;;5076409;28;20441;-69
2022/04/07 02:29:38;;;;;;;3.17;1.20;;;11.10;99.90;;;;;;5076394;28;20449;-69
2022/04/07 02:32:06;;;;;;;5.97;1.80;;;11.10;99.90;;;;;;5076275;28;20884;-69
2022/04/07 02:34:34;;;;;;;2.60;1.40;;;11.10;99.90;;;;;;5076205;28;20459;-69
2022/04/07 02:37:01;;;;;;;2.30;1.53;;;11.20;99.90;;;;;;5075993;28;20444;-69
2022/04/07 02:39:28;;;;;;;2.73;1.20;;;11.20;99.90;;;;;;5076158;28;20580;-69
2022/04/07 02:41:54;;;;;;;1.60;1.20;;;11.20;99.90;;;;;;5075841;28;20479;-69
2022/04/07 02:44:21;;;;;;;1.90;1.13;;;11.20;99.90;;;;;;5076089;28;20475;-69
2022/04/07 02:46:49;;;;;;;1.70;1.30;;;11.20;99.90;;;;;;5076104;28;20471;-69
2022/04/07 02:49:15;;;;;;;2.80;1.30;;;11.20;99.90;;;;;;5076002;28;20449;-70
2022/04/07 02:51:44;;;;;;;3.43;0.83;;;11.20;99.90;;;;;;5075934;28;20464;-70
2022/04/07 02:54:11;;;;;;;1.43;1.20;;;11.20;99.90;;;;;;5075555;28;20951;-69
2022/04/07 02:56:38;;;;;;;2.10;1.03;;;11.30;99.90;;;;;;5075641;28;20471;-69
2022/04/07 02:59:05;;;;;;;2.30;1.50;;;11.30;99.90;;;;;;5075430;28;20476;-70
2022/04/07 03:01:31;;;;;;;2.13;1.10;;;11.20;99.90;;;;;;5075679;28;20465;-69
2022/04/07 03:03:59;;;;;;;0.97;0.87;;;11.20;99.90;;;;;;5075809;28;20448;-70
2022/04/07 03:06:26;;;;;;;2.43;1.07;;;11.20;99.90;;;;;;5076678;28;20437;-70
2022/04/07 03:08:55;;;;;;;2.87;0.90;;;11.20;99.90;;;;;;5075733;28;20452;-69
2022/04/07 03:11:22;;;;;;;5.80;1.40;;;11.20;99.90;;;;;;5075624;28;20468;-69
2022/04/07 03:13:49;;;;;;;2.70;1.23;;;11.20;99.90;;;;;;5075316;28;20448;-70
2022/04/07 03:16:15;;;;;;;5.00;1.23;;;11.30;99.90;;;;;;5075574;28;20527;-70
2022/04/07 03:18:42;;;;;;;1.73;0.90;;;11.20;99.90;;;;;;5075314;28;20459;-70
2022/04/07 03:21:09;;;;;;;8.37;1.43;;;11.20;99.90;;;;;;5075792;28;20538;-70
2022/04/07 03:23:35;;;;;;;3.27;1.40;;;11.20;99.90;;;;;;5075706;28;20448;-70
2022/04/07 03:26:03;;;;;;;2.97;1.07;;;11.20;99.90;;;;;;5075576;28;20448;-70
2022/04/07 03:28:30;;;;;;;6.73;1.67;;;11.20;99.90;;;;;;5075311;28;20445;-70
2022/04/07 03:30:57;;;;;;;2.63;1.10;;;11.20;99.90;;;;;;5075325;28;20881;-70
2022/04/07 03:33:25;;;;;;;2.43;1.23;;;11.20;99.90;;;;;;5075271;28;20453;-70
2022/04/07 03:35:52;;;;;;;2.73;1.03;;;11.20;99.90;;;;;;5075251;28;20482;-70
2022/04/07 03:38:19;;;;;;;3.40;1.20;;;11.30;99.90;;;;;;5075318;28;20444;-70
2022/04/07 03:40:46;;;;;;;2.77;1.17;;;11.30;99.90;;;;;;5074993;28;20502;-70
2022/04/07 03:43:14;;;;;;;7.43;1.67;;;11.40;99.90;;;;;;5075096;28;20456;-70
2022/04/07 03:45:41;;;;;;;3.10;1.03;;;11.40;99.90;;;;;;5075427;28;20908;-70
2022/04/07 03:48:08;;;;;;;4.23;1.30;;;11.40;99.90;;;;;;5075052;28;20455;-70
2022/04/07 03:50:35;;;;;;;5.37;1.50;;;11.40;99.90;;;;;;5074519;28;20524;-70
2022/04/07 03:53:02;;;;;;;2.70;1.63;;;11.40;99.90;;;;;;5074724;28;20970;-70
2022/04/07 03:55:29;;;;;;;3.17;1.30;;;11.50;99.90;;;;;;5074875;28;20507;-70
2022/04/07 03:57:55;;;;;;;3.53;1.50;;;11.50;99.90;;;;;;5074809;28;20476;-70
2022/04/07 04:00:25;;;;;;;6.30;1.87;;;11.50;99.90;;;;;;5074866;28;20476;-70
2022/04/07 04:02:52;;;;;;;2.53;1.10;;;11.50;99.90;;;;;;5074697;28;20510;-70
2022/04/07 04:05:19;;;;;;;7.07;1.77;;;11.60;99.90;;;;;;5074744;28;20452;-70
2022/04/07 04:07:46;;;;;;;8.47;1.67;;;11.50;99.90;;;;;;5074608;28;20449;-70
2022/04/07 04:10:13;;;;;;;9.87;1.27;;;11.50;99.90;;;;;;5074284;28;20938;-70
2022/04/07 04:12:40;;;;;;;2.83;1.10;;;11.50;99.90;;;;;;5074252;28;20476;-70
2022/04/07 04:15:07;;;;;;;2.43;1.33;;;11.50;99.90;;;;;;5074838;28;20448;-70
2022/04/07 04:17:36;;;;;;;1.30;1.20;;;11.50;99.90;;;;;;5074115;28;20861;-70
2022/04/07 04:20:03;;;;;;;1.90;1.23;;;11.50;99.90;;;;;;5074097;28;20485;-70
2022/04/07 04:22:30;;;;;;;4.27;1.03;;;11.50;99.90;;;;;;5074853;28;20468;-70
2022/04/07 04:24:56;;;;;;;1.77;1.30;;;11.50;99.90;;;;;;5074298;28;20845;-70
2022/04/07 04:27:23;;;;;;;4.00;1.40;;;11.50;99.90;;;;;;5074442;28;20439;-69
2022/04/07 04:29:50;;;;;;;1.47;1.13;;;11.50;99.90;;;;;;5074049;28;20866;-69
2022/04/07 04:32:17;;;;;;;2.37;1.23;;;11.50;99.90;;;;;;5074019;28;20480;-69
2022/04/07 04:34:45;;;;;;;4.90;1.40;;;11.40;99.90;;;;;;5074202;28;20449;-69
2022/04/07 04:37:11;;;;;;;1.53;1.10;;;11.40;99.90;;;;;;5073909;28;20466;-69
2022/04/07 04:39:38;;;;;;;1.73;1.40;;;11.40;99.90;;;;;;5073159;28;20541;-69
2022/04/07 04:42:06;;;;;;;1.60;1.20;;;11.40;99.90;;;;;;5073520;28;20464;-69
2022/04/07 04:44:33;;;;;;;3.50;1.43;;;11.40;99.90;;;;;;5073768;28;20447;-69
2022/04/07 04:47:00;;;;;;;2.77;1.07;;;11.40;99.90;;;;;;5073729;28;20467;-68
2022/04/07 04:49:27;;;;;;;1.97;1.40;;;11.40;99.90;;;;;;5073645;28;20815;-68
2022/04/07 04:51:55;;;;;;;1.57;1.47;;;11.40;99.90;;;;;;5073597;28;20469;-68
2022/04/07 04:54:22;;;;;;;2.03;1.60;;;11.30;99.90;;;;;;5073644;28;20463;-69
2022/04/07 04:56:48;;;;;;;2.00;1.50;;;11.40;99.90;;;;;;5073362;28;20951;-69
2022/04/07 04:59:16;;;;;;;1.70;1.57;;;11.30;99.90;;;;;;5073545;28;20453;-69
2022/04/07 05:01:42;;;;;;;2.07;1.00;;;11.40;99.90;;;;;;5073694;28;20537;-69
2022/04/07 05:04:09;;;;;;;3.20;1.57;;;11.30;99.90;;;;;;5073609;28;20437;-68
2022/04/07 05:06:36;;;;;;;2.30;1.37;;;11.30;99.90;;;;;;5073472;28;20448;-68
2022/04/07 05:09:04;;;;;;;2.00;1.40;;;11.30;99.90;;;;;;5073215;28;20940;-68
2022/04/07 05:11:31;;;;;;;1.63;1.03;;;11.30;99.90;;;;;;5073099;28;20871;-69
2022/04/07 05:13:58;;;;;;;1.90;1.23;;;11.30;99.90;;;;;;5073342;28;20444;-69
2022/04/07 05:16:24;;;;;;;2.10;1.30;;;11.30;99.90;;;;;;5073424;28;20449;-69
2022/04/07 05:18:52;;;;;;;1.70;1.20;;;11.30;99.90;;;;;;5073216;28;20472;-69
2022/04/07 05:21:19;;;;;;;2.27;1.10;;;11.30;99.90;;;;;;5073210;28;20488;-69
2022/04/07 05:23:46;;;;;;;3.17;0.83;;;11.30;99.90;;;;;;5073128;28;20959;-69
2022/04/07 05:26:14;;;;;;;1.23;0.80;;;11.30;99.90;;;;;;5073185;28;20448;-69
2022/04/07 05:28:42;;;;;;;3.30;1.30;;;11.30;99.90;;;;;;5073398;28;20449;-69
2022/04/07 05:31:08;;;;;;;1.47;1.00;;;11.30;99.90;;;;;;5073305;28;20525;-69
2022/04/07 05:33:35;;;;;;;1.83;0.80;;;11.30;99.90;;;;;;5073401;28;20797;-69
2022/04/07 05:36:02;;;;;;;1.37;0.90;;;11.30;99.90;;;;;;5073271;28;20448;-69
2022/04/07 05:38:29;;;;;;;3.83;1.63;;;11.30;99.90;;;;;;5073447;28;20457;-69
2022/04/07 05:40:56;;;;;;;4.97;0.90;;;11.30;99.90;;;;;;5073186;28;20503;-69
2022/04/07 05:43:24;;;;;;;2.73;1.20;;;11.30;99.90;;;;;;5073192;28;20444;-69
2022/04/07 05:45:52;;;;;;;2.63;1.23;;;11.30;99.90;;;;;;5074340;28;20428;-69
2022/04/07 05:48:19;;;;;;;2.83;1.10;;;11.30;99.90;;;;;;5073102;28;20452;-69
2022/04/07 05:50:45;;;;;;;3.23;1.33;;;11.30;99.90;;;;;;5074461;28;20464;-69
2022/04/07 05:53:12;;;;;;;2.00;0.90;;;11.40;99.90;;;;;;5078388;28;20471;-69
2022/04/07 05:55:39;;;;;;;3.57;1.43;;;11.40;99.90;;;;;;5077899;28;20452;-69
2022/04/07 05:58:07;;;;;;;0.97;0.97;;;11.40;99.90;;;;;;5077541;28;20444;-68
2022/04/07 06:00:37;;;;;;;2.10;0.70;;;11.40;99.90;;;;;;5077346;28;20479;-68
2022/04/07 06:03:03;;;;;;;1.97;1.03;;;11.40;99.90;;;;;;5076924;28;20502;-68
2022/04/07 06:05:30;;;;;;;3.80;1.00;;;11.40;99.90;;;;;;5076961;28;20451;-68
2022/04/07 06:08:01;;;;;;;2.73;1.00;;;11.30;99.90;;;;;;5076479;28;20820;-68
2022/04/07 06:10:28;;;;;;;1.40;0.70;;;11.20;99.90;;;;;;5076295;28;20803;-68
2022/04/07 06:12:55;;;;;;;0.90;0.80;;;11.10;99.90;;;;;;5076766;28;20452;-68
2022/04/07 06:15:23;;;;;;;1.03;0.80;;;11.10;99.90;;;;;;5076607;28;20448;-69
2022/04/07 06:17:51;;;;;;;3.80;1.07;;;11.10;99.90;;;;;;5076248;28;20865;-69
2022/04/07 06:20:18;;;;;;;1.43;0.70;;;11.10;99.90;;;;;;5076180;28;20484;-69
2022/04/07 06:22:46;;;;;;;4.33;1.40;;;11.00;99.90;;;;;;5076404;28;20480;-69
2022/04/07 06:25:13;;;;;;;1.43;0.70;;;11.00;99.90;;;;;;5076444;28;20444;-68
2022/04/07 06:27:41;;;;;;;2.93;0.90;;;11.10;99.90;;;;;;5076395;28;20448;-68
2022/04/07 06:30:10;;;;;;;1.73;0.70;;;11.10;99.90;;;;;;5076427;28;20448;-69
2022/04/07 06:32:38;;;;;;;1.20;1.10;;;11.10;99.90;;;;;;5077582;28;20475;-68
2022/04/07 06:35:08;;;;;;;1.53;0.70;;;11.10;99.90;;;;;;5076307;28;20452;-68
2022/04/07 06:37:45;;;;;;;1.63;0.80;;;11.20;99.90;;;;;;5076519;28;20497;-69
2022/04/07 06:40:13;;;;;;;2.50;1.23;;;11.30;99.90;;;;;;5076238;28;20530;-69
2022/04/07 06:42:40;;;;;;;1.20;0.80;;;11.40;99.90;;;;;;5076639;28;20480;-67
2022/04/07 06:45:07;;;;;;;0.80;0.80;;;11.40;99.90;;;;;;5076201;28;20444;-68
2022/04/07 06:47:38;;;;;;;2.10;0.80;;;11.50;99.90;;;;;;5076007;28;20448;-68
2022/04/07 06:50:10;;;;;;;1.40;0.70;;;11.50;99.90;;;;;;5076056;28;20464;-68
2022/04/07 06:52:37;;;;;;;1.90;0.70;;;11.60;99.90;;;;;;5076044;28;20469;-68
2022/04/07 06:55:04;;;;;;;3.57;0.60;;;11.60;99.90;;;;;;5075948;28;20448;-69
2022/04/07 06:57:31;;;;;;;0.77;0.70;;;11.60;99.90;;;;;;5075922;28;20448;-69
2022/04/07 06:59:57;;;;;;;2.73;0.53;;;11.70;99.90;;;;;;5075808;28;20452;-70
2022/04/07 07:02:24;;;;;;;1.27;0.80;;;11.70;99.90;;;;;;5075109;28;20876;-70
2022/04/07 07:04:51;;;;;;;1.50;0.53;;;11.80;99.90;;;;;;5075858;28;20452;-69
2022/04/07 07:07:19;;;;;;;0.70;0.50;;;11.90;99.90;;;;;;5075697;28;20444;-69
2022/04/07 07:09:46;;;;;;;3.50;0.70;;;12.00;99.90;;;;;;5075627;28;20449;-68
2022/04/07 07:12:13;;;;;;;0.80;0.60;;;12.00;99.90;;;;;;5075250;28;20518;-68
2022/04/07 07:14:39;;;;;;;2.13;0.60;;;12.00;99.90;;;;;;5075492;28;20453;-68
2022/04/07 07:17:07;;;;;;;2.47;0.70;;;12.00;99.90;;;;;;5075531;28;20445;-69
2022/04/07 07:19:33;;;;;;;2.20;0.50;;;12.10;99.90;;;;;;5075225;28;20456;-69
2022/04/07 07:22:00;;;;;;;0.60;0.47;;;12.10;99.90;;;;;;5075048;28;20998;-68
2022/04/07 07:24:29;;;;;;;1.00;0.50;;;12.10;99.90;;;;;;5075536;28;20449;-68
2022/04/07 07:26:55;;;;;;;1.43;0.50;;;12.10;99.90;;;;;;5075323;28;20448;-68
2022/04/07 07:29:22;;;;;;;2.03;0.60;;;12.10;99.90;;;;;;5075453;28;20455;-68
2022/04/07 07:31:49;;;;;;;2.47;0.40;;;12.10;99.90;;;;;;5075393;28;20460;-69
2022/04/07 07:34:15;;;;;;;2.00;0.60;;;12.10;99.90;;;;;;5075576;28;20444;-69
2022/04/07 07:36:42;;;;;;;1.27;0.60;;;12.10;99.90;;;;;;5075396;28;20452;-69
2022/04/07 07:39:10;;;;;;;0.60;0.40;;;12.10;99.90;;;;;;5075241;28;20445;-68
2022/04/07 07:41:39;;;;;;;1.43;0.60;;;12.20;99.90;;;;;;5074842;28;20492;-68
2022/04/07 07:44:06;;;;;;;1.93;0.40;;;12.20;99.90;;;;;;5074940;28;20457;-68
2022/04/07 07:46:33;;;;;;;1.00;0.50;;;12.10;99.90;;;;;;5074668;28;20436;-69
2022/04/07 07:49:00;;;;;;;0.73;0.47;;;12.10;99.90;;;;;;5074862;28;20483;-69
2022/04/07 07:51:27;;;;;;;0.50;0.40;;;12.20;99.90;;;;;;5074890;28;20476;-69
2022/04/07 07:53:54;;;;;;;0.83;0.60;;;12.20;99.90;;;;;;5074451;28;20959;-68
2022/04/07 07:56:20;;;;;;;0.97;0.93;;;12.40;99.90;;;;;;5075028;28;20444;-68
2022/04/07 07:58:48;;;;;;;1.30;0.47;;;12.40;99.90;;;;;;5074763;28;20448;-68
2022/04/07 08:01:15;;;;;;;4.33;0.67;;;12.40;99.90;;;;;;5074454;28;20484;-68
2022/04/07 08:03:42;;;;;;;1.00;0.30;;;12.40;99.90;;;;;;5074547;28;20449;-68
2022/04/07 08:06:09;;;;;;;2.07;0.60;;;12.30;99.90;;;;;;5074509;28;20449;-67
2022/04/07 08:08:35;;;;;;;2.87;0.47;;;12.30;99.90;;;;;;5074521;28;20448;-68
2022/04/07 08:11:02;;;;;;;4.93;0.40;;;12.30;99.90;;;;;;5074360;28;20461;-68
2022/04/07 08:13:29;;;;;;;0.80;0.40;;;12.30;99.90;;;;;;5073801;28;20453;-68
2022/04/07 08:16:01;;;;;;;1.90;0.50;;;12.40;99.90;;;;;;5073925;28;20441;-68
2022/04/07 08:18:27;;;;;;;1.50;0.50;;;12.50;99.90;;;;;;5074370;28;20448;-68
2022/04/07 08:20:54;;;;;;;0.93;0.20;;;12.60;99.90;;;;;;5074298;28;20496;-69
2022/04/07 08:23:22;;;;;;;1.67;0.40;;;12.70;99.90;;;;;;5074273;28;20456;-68
2022/04/07 08:25:49;;;;;;;0.50;0.40;;;12.80;99.90;;;;;;5074307;28;20441;-68
2022/04/07 08:28:15;;;;;;;0.70;0.40;;;12.90;99.90;;;;;;5074143;28;20456;-68
2022/04/07 08:30:42;;;;;;;3.03;0.33;;;13.00;99.90;;;;;;5073732;28;20859;-69
2022/04/07 08:33:10;;;;;;;1.63;0.40;;;13.00;99.90;;;;;;5074074;28;20452;-69
2022/04/07 08:35:37;;;;;;;1.23;0.43;;;13.10;99.90;;;;;;5074089;28;20460;-69
2022/04/07 08:38:04;;;;;;;0.50;0.30;;;13.10;99.90;;;;;;5074523;28;20452;-69
2022/04/07 08:40:32;;;;;;;1.03;0.30;;;13.00;99.90;;;;;;5073979;28;20841;-69
2022/04/07 08:42:59;;;;;;;0.40;0.23;;;13.00;99.90;;;;;;5073964;28;20444;-69
2022/04/07 08:45:27;;;;;;;3.20;0.30;;;12.80;99.90;;;;;;5073898;28;20460;-69
2022/04/07 08:47:57;;;;;;;1.70;0.30;;;12.80;99.90;;;;;;5073550;28;20833;-69
2022/04/07 08:50:27;;;;;;;0.60;0.40;;;12.90;99.90;;;;;;5074106;28;20523;-69
2022/04/07 08:52:54;;;;;;;2.77;0.40;;;13.00;99.90;;;;;;5073745;28;20440;-69
2022/04/07 08:55:21;;;;;;;0.90;0.30;;;13.20;99.90;;;;;;5073905;28;20966;-69
2022/04/07 08:57:48;;;;;;;0.40;0.20;;;13.30;99.90;;;;;;5073798;28;20445;-68
2022/04/07 09:00:16;;;;;;;1.07;0.30;;;13.40;99.90;;;;;;5073559;28;20441;-69
2022/04/07 09:02:44;;;;;;;0.33;0.27;;;13.40;99.90;;;;;;5073811;28;20484;-69
2022/04/07 09:05:11;;;;;;;0.57;0.30;;;13.40;99.90;;;;;;5073553;28;20444;-69
2022/04/07 09:07:40;;;;;;;0.60;0.27;;;13.50;99.90;;;;;;5073632;28;20448;-69
2022/04/07 09:10:07;;;;;;;1.13;0.30;;;13.50;99.90;;;;;;5073202;28;20421;-69
2022/04/07 09:12:38;;;;;;;2.27;0.50;;;13.60;99.90;;;;;;5073417;28;20831;-69
2022/04/07 09:15:06;;;;;;;0.60;0.33;;;13.70;99.90;;;;;;5073467;28;20523;-69
2022/04/07 09:17:34;;;;;;;0.87;0.43;;;13.90;99.90;;;;;;5073499;28;20494;-69
2022/04/07 09:20:01;;;;;;;0.30;0.30;;;13.90;99.90;;;;;;5072979;28;20971;-69
2022/04/07 09:22:31;;;;;;;2.40;0.40;;;14.00;99.90;;;;;;5073259;28;20500;-68
2022/04/07 09:25:05;;;;;;;1.63;0.20;;;13.90;99.90;;;;;;5073017;28;20461;-68
2022/04/07 09:27:32;;;;;;;0.53;0.43;;;13.80;99.90;;;;;;5073163;28;20952;-68
2022/04/07 09:30:00;;;;;;;0.97;0.53;;;13.70;99.90;;;;;;5073350;28;20452;-68
2022/04/07 09:32:27;;;;;;;1.70;0.50;;;13.60;99.90;;;;;;5073297;28;20468;-68
2022/04/07 09:34:56;;;;;;;0.60;0.50;;;13.60;99.90;;;;;;5073188;28;20433;-68
2022/04/07 09:37:24;;;;;;;1.03;0.53;;;13.40;99.90;;;;;;5073231;28;20445;-68
2022/04/07 09:40:05;;;;;;;1.90;0.40;;;13.20;99.90;;;;;;5073126;28;20471;-68
2022/04/07 09:42:33;;;;;;;0.50;0.40;;;13.10;99.90;;;;;;5072983;28;20487;-68
2022/04/07 09:45:01;;;;;;;3.70;1.47;;;12.90;99.90;;;;;;5073116;28;20450;-68
2022/04/07 09:47:35;;;;;;;3.17;0.60;;;12.70;99.90;;;;;;5073112;28;20476;-67
2022/04/07 09:50:02;;;;;;;1.37;0.57;;;12.60;99.90;;;;;;5073113;28;20428;-67
2022/04/07 09:52:30;;;;;;;5.60;0.93;;;12.50;99.90;;;;;;5073031;28;20465;-67
2022/04/07 09:55:02;;;;;;;3.40;0.50;;;12.40;99.90;;;;;;5073192;28;20498;-67
2022/04/07 09:57:31;;;;;;;3.93;0.77;;;12.30;99.90;;;;;;5073177;28;20466;-67
2022/04/07 09:59:59;;;;;;;0.57;0.50;;;12.10;99.90;;;;;;5072601;28;20910;-68
2022/04/07 10:02:26;;;;;;;0.70;0.50;;;12.10;99.90;;;;;;5072837;28;20491;-68
2022/04/07 10:04:55;;;;;;;1.53;0.50;;;12.10;99.90;;;;;;5073021;28;20822;-66
2022/04/07 10:07:25;;;;;;;1.23;0.40;;;12.20;99.90;;;;;;5072624;28;20951;-67
2022/04/07 10:09:52;;;;;;;1.00;0.40;;;12.10;99.90;;;;;;5073008;28;20455;-68
2022/04/07 10:12:19;;;;;;;1.37;0.57;;;12.00;99.90;;;;;;5073052;28;20494;-68
2022/04/07 10:14:48;;;;;;;2.10;0.40;;;12.00;99.90;;;;;;5072888;28;20444;-68
2022/04/07 10:17:15;;;;;;;0.60;0.60;;;12.00;99.90;;;;;;5072871;28;20543;-68
2022/04/07 10:19:48;;;;;;;0.60;0.50;;;12.00;99.90;;;;;;5072930;28;20456;-68
2022/04/07 10:22:28;;;;;;;1.90;0.70;;;12.10;99.90;;;;;;5072923;28;20570;-68
2022/04/07 10:25:00;;;;;;;0.50;0.50;;;12.20;99.90;;;;;;5073388;28;20441;-68
2022/04/07 10:27:29;;;;;;;0.60;0.47;;;12.20;99.90;;;;;;5072568;28;20904;-68
2022/04/07 10:30:09;;;;;;;0.60;0.57;;;12.30;99.90;;;;;;5072701;28;20441;-69
2022/04/07 10:32:38;;;;;;;0.70;0.50;;;12.50;99.90;;;;;;5072700;28;20494;-69
2022/04/07 10:35:06;;;;;;;2.40;0.50;;;12.60;99.90;;;;;;5073571;28;20544;-69
2022/04/07 10:37:42;;;;;;;0.67;0.43;;;12.80;99.90;;;;;;5073235;28;20982;-69
2022/04/07 10:40:32;;;;;;;1.37;0.53;;;12.80;99.90;;;;;;5076399;28;20433;-69
2022/04/07 10:43:18;;;;;;;0.40;0.30;;;13.10;99.90;;;;;;5076193;28;20472;-69
2022/04/07 10:45:48;;;;;;;0.40;0.40;;;13.00;99.90;;;;;;5076188;28;20479;-70
2022/04/07 10:48:33;;;;;;;0.70;0.40;;;13.00;98.10;;;;;;5076283;28;20456;-70
2022/04/07 10:51:01;;;;;;;0.40;0.40;;;13.00;95.20;;;;;;5076101;28;20468;-69
2022/04/07 10:53:30;;;;;;;0.40;0.30;;;12.90;93.90;;;;;;5076241;28;20464;-69
2022/04/07 10:56:06;;;;;;;0.60;0.40;;;13.10;92.20;;;;;;5076068;28;20440;-69
2022/04/07 10:58:55;;;;;;;1.60;0.50;;;13.50;89.90;;;;;;5076113;28;20421;-69
2022/04/07 11:01:56;;;;;;;0.40;0.30;;;14.10;84.80;;;;;;5075497;28;20975;-70
2022/04/07 11:04:40;;;;;;;0.60;0.30;;;14.80;81.40;;;;;;5076146;28;20429;-70
2022/04/07 11:07:22;;;;;;;0.70;0.50;;;15.30;78.00;;;;;;5075817;28;20523;-69
2022/04/07 11:10:11;;;;;;;0.87;0.57;;;15.50;76.60;;;;;;5075939;28;20887;-70
2022/04/07 11:12:40;;;;;;;1.33;0.40;;;15.90;75.30;;;;;;5074208;28;21081;-70
2022/04/07 11:15:30;;;;;;;0.60;0.37;;;16.20;71.60;;;;;;5075880;28;20432;-70
2022/04/07 11:18:04;;;;;;;1.27;0.30;;;16.40;68.90;;;;;;5076031;28;20436;-70
2022/04/07 11:20:30;;;;;;;5.23;0.63;;;16.50;61.10;;;;;;5075220;28;20460;-70
2022/04/07 11:23:01;;;;;;;0.50;0.30;;;16.50;63.80;;;;;;5075523;28;20495;-70
2022/04/07 11:25:30;;;;;;;0.80;0.53;;;16.60;63.00;;;;;;5075370;28;20441;-70
2022/04/07 11:28:19;;;;;;;4.67;0.90;;;16.60;67.90;;;;;;5075767;28;20532;-70
2022/04/07 11:30:48;;;;;;;1.13;0.60;;;17.20;68.00;;;;;;5070829;28;20485;-70
2022/04/07 11:33:28;;;;;;;1.23;0.50;;;17.40;62.10;;;;;;5075212;28;20445;-70
2022/04/07 11:36:14;;;;;;;1.30;0.50;;;17.30;59.10;;;;;;5075515;28;20432;-70
2022/04/07 11:38:44;;;;;;;2.13;0.53;;;17.50;60.80;;;;;;5075264;28;20497;-70
2022/04/07 11:41:12;;;;;;;1.03;0.60;;;17.60;59.20;;;;;;5075424;28;20469;-70
2022/04/07 11:43:40;;;;;;;1.27;0.47;;;17.70;56.60;;;;;;5075021;28;20963;-70
2022/04/07 11:46:07;;;;;;;1.03;0.60;;;17.70;55.90;;;;;;5075194;28;20447;-70
2022/04/07 11:48:37;;;;;;;2.30;0.80;;;17.70;55.90;;;;;;5074895;28;20445;-70
2022/04/07 11:51:11;;;;;;;1.50;0.60;;;17.90;55.00;;;;;;5075039;28;20537;-70
2022/04/07 11:53:40;;;;;;;3.60;0.63;;;17.90;55.80;;;;;;5075015;28;20482;-70
2022/04/07 11:56:14;;;;;;;1.60;0.60;;;18.00;52.40;;;;;;5074992;28;20485;-69
2022/04/07 11:58:41;;;;;;;2.80;0.60;;;17.60;53.10;;;;;;5074898;28;20529;-69
2022/04/07 12:01:11;;;;;;;2.50;0.70;;;17.70;54.30;;;;;;5074468;28;20988;-69
2022/04/07 12:03:39;;;;;;;1.80;0.77;;;17.70;52.80;;;;;;5074697;28;20484;-70
2022/04/07 12:06:06;;;;;;;1.53;0.67;;;17.30;51.70;;;;;;5074432;28;20456;-70
2022/04/07 12:08:33;;;;;;;2.03;0.70;;;16.90;52.90;;;;;;5074251;28;20908;-70
2022/04/07 12:11:00;;;;;;;1.00;0.40;;;16.60;54.30;;;;;;5074511;28;20480;-70
2022/04/07 12:13:27;;;;;;;2.57;1.10;;;16.80;55.40;;;;;;5075065;28;20512;-70
2022/04/07 12:15:54;;;;;;;1.53;0.40;;;16.30;54.80;;;;;;5074476;28;20502;-70
2022/04/07 12:18:26;;;;;;;1.20;0.70;;;16.10;57.00;;;;;;5074310;28;20449;-70
2022/04/07 12:21:00;;;;;;;2.30;0.67;;;15.90;57.90;;;;;;5074457;28;20476;-70
2022/04/07 12:23:28;;;;;;;2.50;0.67;;;16.00;57.40;;;;;;5074087;28;20511;-70
2022/04/07 12:25:59;;;;;;;1.37;0.57;;;16.00;55.40;;;;;;5074361;28;20460;-70
2022/04/07 12:28:33;;;;;;;1.53;0.70;;;16.20;53.80;;;;;;5074024;28;20810;-70
2022/04/07 12:30:59;;;;;;;1.10;0.70;;;16.00;53.20;;;;;;5074191;28;20497;-69
2022/04/07 12:33:44;;;;;;;2.83;0.80;;;16.00;56.20;;;;;;5074162;28;20441;-70
2022/04/07 12:36:14;;;;;;;4.13;0.87;;;16.00;54.40;;;;;;5074291;28;20441;-70
2022/04/07 12:38:41;;;;;;;1.60;0.83;;;15.90;54.60;;;;;;5074757;28;20441;-70
2022/04/07 12:41:13;;;;;;;3.03;0.70;;;15.60;54.40;;;;;;5074223;28;20464;-70
2022/04/07 12:43:50;;;;;;;2.83;0.80;;;15.40;53.30;;;;;;5073950;28;20519;-70
2022/04/07 12:46:17;;;;;;;3.63;1.20;;;15.00;56.00;;;;;;5074096;28;20866;-70
2022/04/07 12:49:04;;;;;;;3.10;0.80;;;14.80;57.90;;;;;;5074072;28;20453;-70
2022/04/07 12:51:33;;;;;;;3.03;1.10;;;14.70;59.50;;;;;;5073813;28;20987;-70
2022/04/07 12:54:12;;;;;;;3.70;1.00;;;14.40;59.50;;;;;;5073734;28;20452;-70
2022/04/07 12:56:40;;;;;;;5.47;1.30;;;14.10;60.40;;;;;;5073858;28;20437;-70